sensor_id;sensor_type;location;lat;lon;timestamp;temperature;humidity
14517;DHT22;7344;50.864;4.362;2023-02-03T00:01:43;10.50;99.90
14517;DHT22;7344;50.864;4.362;2023-02-03T00:04:09;10.40;99.90
14517;DHT22;7344;50.864;4.362;2023-02-03T00:06:34;10.40;99.90
14517;DHT22;7344;50.864;4.362;2023-02-03T00:09:00;10.50;99.90
14517;DHT22;7344;50.864;4.362;2023-02-03T00:11:28;10.40;99.90
14517;DHT22;7344;50.864;4.362;2023-02-03T00:13:54;10.40;99.90
14517;DHT22;7344;50.864;4.362;2023-02-03T00:16:20;10.40;99.90
14517;DHT22;7344;50.864;4.362;2023-02-03T00:18:45;10.30;99.90
14517;DHT22;7344;50.864;4.362;2023-02-03T00:21:11;10.40;99.90
14517;DHT22;7344;50.864;4.362;2023-02-03T00:23:39;10.40;99.90
14517;DHT22;7344;50.864;4.362;2023-02-03T00:26:14;10.40;99.90
14517;DHT22;7344;50.864;4.362;2023-02-03T00:28:40;10.30;99.90
14517;DHT22;7344;50.864;4.362;2023-02-03T00:31:14;10.40;99.90
14517;DHT22;7344;50.864;4.362;2023-02-03T00:33:40;10.40;99.90
14517;DHT22;7344;50.864;4.362;2023-02-03T00:36:05;10.30;99.90
14517;DHT22;7344;50.864;4.362;2023-02-03T00:38:31;10.30;99.90
14517;DHT22;7344;50.864;4.362;2023-02-03T00:40:57;10.40;99.90
14517;DHT22;7344;50.864;4.362;2023-02-03T00:43:22;10.30;99.90
14517;DHT22;7344;50.864;4.362;2023-02-03T00:45:48;10.40;99.90
14517;DHT22;7344;50.864;4.362;2023-02-03T00:48:13;10.30;99.90
14517;DHT22;7344;50.864;4.362;2023-02-03T00:50:39;10.20;99.90
14517;DHT22;7344;50.864;4.362;2023-02-03T00:53:05;10.30;99.90
14517;DHT22;7344;50.864;4.362;2023-02-03T00:55:31;10.40;99.90
14517;DHT22;7344;50.864;4.362;2023-02-03T00:57:56;10.40;99.90
14517;DHT22;7344;50.864;4.362;2023-02-03T01:00:22;10.40;99.90
14517;DHT22;7344;50.864;4.362;2023-02-03T01:02:48;10.40;99.90
14517;DHT22;7344;50.864;4.362;2023-02-03T01:05:13;10.40;99.90
14517;DHT22;7344;50.864;4.362;2023-02-03T01:07:39;10.50;99.90
14517;DHT22;7344;50.864;4.362;2023-02-03T01:10:05;10.60;99.90
14517;DHT22;7344;50.864;4.362;2023-02-03T01:12:31;10.60;99.90
14517;DHT22;7344;50.864;4.362;2023-02-03T01:14:57;10.60;99.90
14517;DHT22;7344;50.864;4.362;2023-02-03T01:17:24;10.50;99.90
14517;DHT22;7344;50.864;4.362;2023-02-03T01:19:50;10.60;99.90
14517;DHT22;7344;50.864;4.362;2023-02-03T01:22:16;10.60;99.90
14517;DHT22;7344;50.864;4.362;2023-02-03T01:24:42;10.40;99.90
14517;DHT22;7344;50.864;4.362;2023-02-03T01:27:08;10.50;99.90
14517;DHT22;7344;50.864;4.362;2023-02-03T01:29:33;10.50;99.90
14517;DHT22;7344;50.864;4.362;2023-02-03T01:31:59;10.50;99.90
14517;DHT22;7344;50.864;4.362;2023-02-03T01:34:25;10.50;99.90
14517;DHT22;7344;50.864;4.362;2023-02-03T01:36:50;10.50;99.90
14517;DHT22;7344;50.864;4.362;2023-02-03T01:39:16;10.50;99.90
14517;DHT22;7344;50.864;4.362;2023-02-03T01:41:42;10.60;99.90
14517;DHT22;7344;50.864;4.362;2023-02-03T01:44:35;10.50;99.90
14517;DHT22;7344;50.864;4.362;2023-02-03T01:47:04;10.50;99.90
14517;DHT22;7344;50.864;4.362;2023-02-03T01:49:35;10.50;99.90
14517;DHT22;7344;50.864;4.362;2023-02-03T01:52:02;10.50;99.90
14517;DHT22;7344;50.864;4.362;2023-02-03T01:54:31;10.40;99.90
14517;DHT22;7344;50.864;4.362;2023-02-03T01:57:04;10.30;99.90
14517;DHT22;7344;50.864;4.362;2023-02-03T01:59:32;10.30;99.90
14517;DHT22;7344;50.864;4.362;2023-02-03T02:01:59;10.40;99.90
14517;DHT22;7344;50.864;4.362;2023-02-03T02:04:28;10.40;99.90
14517;DHT22;7344;50.864;4.362;2023-02-03T02:06:58;10.40;99.90
14517;DHT22;7344;50.864;4.362;2023-02-03T02:09:25;10.40;99.90
14517;DHT22;7344;50.864;4.362;2023-02-03T02:11:51;10.40;99.90
14517;DHT22;7344;50.864;4.362;2023-02-03T02:14:17;10.40;99.90
14517;DHT22;7344;50.864;4.362;2023-02-03T02:16:52;10.50;99.90
14517;DHT22;7344;50.864;4.362;2023-02-03T02:36:17;10.50;99.90
14517;DHT22;7344;50.864;4.362;2023-02-03T02:39:11;10.40;99.90
14517;DHT22;7344;50.864;4.362;2023-02-03T02:41:52;10.40;99.90
14517;DHT22;7344;50.864;4.362;2023-02-03T02:44:32;10.50;99.90
14517;DHT22;7344;50.864;4.362;2023-02-03T02:47:05;10.60;99.90
14517;DHT22;7344;50.864;4.362;2023-02-03T02:49:36;10.50;99.90
14517;DHT22;7344;50.864;4.362;2023-02-03T02:52:05;10.50;99.90
14517;DHT22;7344;50.864;4.362;2023-02-03T02:54:33;10.50;99.90
14517;DHT22;7344;50.864;4.362;2023-02-03T02:57:01;10.50;99.90
14517;DHT22;7344;50.864;4.362;2023-02-03T02:59:28;10.50;99.90
14517;DHT22;7344;50.864;4.362;2023-02-03T03:01:53;10.50;99.90
14517;DHT22;7344;50.864;4.362;2023-02-03T03:04:26;10.50;99.90
14517;DHT22;7344;50.864;4.362;2023-02-03T03:09:29;10.50;99.90
14517;DHT22;7344;50.864;4.362;2023-02-03T03:12:06;10.50;99.90
14517;DHT22;7344;50.864;4.362;2023-02-03T03:14:33;10.60;99.90
14517;DHT22;7344;50.864;4.362;2023-02-03T03:17:04;10.50;99.90
14517;DHT22;7344;50.864;4.362;2023-02-03T03:19:40;10.50;99.90
14517;DHT22;7344;50.864;4.362;2023-02-03T03:22:10;10.50;99.90
14517;DHT22;7344;50.864;4.362;2023-02-03T03:24:54;10.50;99.90
14517;DHT22;7344;50.864;4.362;2023-02-03T03:27:25;10.50;99.90
14517;DHT22;7344;50.864;4.362;2023-02-03T03:30:05;10.50;99.90
14517;DHT22;7344;50.864;4.362;2023-02-03T03:32:32;10.50;99.90
14517;DHT22;7344;50.864;4.362;2023-02-03T03:34:59;10.50;99.90
14517;DHT22;7344;50.864;4.362;2023-02-03T03:37:43;10.50;99.90
14517;DHT22;7344;50.864;4.362;2023-02-03T03:40:19;10.50;99.90
14517;DHT22;7344;50.864;4.362;2023-02-03T03:42:50;10.50;99.90
14517;DHT22;7344;50.864;4.362;2023-02-03T03:45:27;10.50;99.90
14517;DHT22;7344;50.864;4.362;2023-02-03T03:50:49;10.60;99.90
14517;DHT22;7344;50.864;4.362;2023-02-03T03:53:17;10.60;99.90
14517;DHT22;7344;50.864;4.362;2023-02-03T03:55:48;10.50;99.90
14517;DHT22;7344;50.864;4.362;2023-02-03T03:58:19;10.50;99.90
14517;DHT22;7344;50.864;4.362;2023-02-03T04:00:47;10.50;99.90
14517;DHT22;7344;50.864;4.362;2023-02-03T04:03:24;10.40;99.90
14517;DHT22;7344;50.864;4.362;2023-02-03T04:05:52;10.40;99.90
14517;DHT22;7344;50.864;4.362;2023-02-03T04:08:18;10.50;99.90
14517;DHT22;7344;50.864;4.362;2023-02-03T04:10:43;10.50;99.90
14517;DHT22;7344;50.864;4.362;2023-02-03T04:13:10;10.60;99.90
14517;DHT22;7344;50.864;4.362;2023-02-03T04:15:36;10.50;99.90
14517;DHT22;7344;50.864;4.362;2023-02-03T04:18:03;10.50;99.90
14517;DHT22;7344;50.864;4.362;2023-02-03T04:20:29;10.50;99.90
14517;DHT22;7344;50.864;4.362;2023-02-03T04:22:56;10.40;99.90
14517;DHT22;7344;50.864;4.362;2023-02-03T04:25:22;10.40;99.90
14517;DHT22;7344;50.864;4.362;2023-02-03T04:27:48;10.40;99.90
14517;DHT22;7344;50.864;4.362;2023-02-03T04:30:14;10.50;99.90
14517;DHT22;7344;50.864;4.362;2023-02-03T04:32:40;10.50;99.90
14517;DHT22;7344;50.864;4.362;2023-02-03T04:35:06;10.50;99.90
14517;DHT22;7344;50.864;4.362;2023-02-03T04:37:32;10.60;99.90
14517;DHT22;7344;50.864;4.362;2023-02-03T04:39:58;10.50;99.90
14517;DHT22;7344;50.864;4.362;2023-02-03T04:42:24;10.50;99.90
14517;DHT22;7344;50.864;4.362;2023-02-03T04:44:50;10.50;99.90
14517;DHT22;7344;50.864;4.362;2023-02-03T04:47:16;10.40;99.90
14517;DHT22;7344;50.864;4.362;2023-02-03T04:49:43;10.40;99.90
14517;DHT22;7344;50.864;4.362;2023-02-03T04:52:08;10.50;99.90
14517;DHT22;7344;50.864;4.362;2023-02-03T04:54:34;10.50;99.90
14517;DHT22;7344;50.864;4.362;2023-02-03T04:57:00;10.40;99.90
14517;DHT22;7344;50.864;4.362;2023-02-03T04:59:25;10.50;99.90
14517;DHT22;7344;50.864;4.362;2023-02-03T05:01:51;10.50;99.90
14517;DHT22;7344;50.864;4.362;2023-02-03T05:04:17;10.40;99.90
14517;DHT22;7344;50.864;4.362;2023-02-03T05:06:42;10.50;99.90
14517;DHT22;7344;50.864;4.362;2023-02-03T05:09:08;10.60;99.90
14517;DHT22;7344;50.864;4.362;2023-02-03T05:11:34;10.60;99.90
14517;DHT22;7344;50.864;4.362;2023-02-03T05:13:59;10.60;99.90
14517;DHT22;7344;50.864;4.362;2023-02-03T05:16:25;10.50;99.90
14517;DHT22;7344;50.864;4.362;2023-02-03T05:18:50;10.60;99.90
14517;DHT22;7344;50.864;4.362;2023-02-03T05:21:16;10.50;99.90
14517;DHT22;7344;50.864;4.362;2023-02-03T05:23:42;10.50;99.90
14517;DHT22;7344;50.864;4.362;2023-02-03T05:26:08;10.50;99.90
14517;DHT22;7344;50.864;4.362;2023-02-03T05:28:34;10.50;99.90
14517;DHT22;7344;50.864;4.362;2023-02-03T05:31:01;10.40;99.90
14517;DHT22;7344;50.864;4.362;2023-02-03T05:33:28;10.50;99.90
14517;DHT22;7344;50.864;4.362;2023-02-03T05:35:53;10.50;99.90
14517;DHT22;7344;50.864;4.362;2023-02-03T05:38:19;10.50;99.90
14517;DHT22;7344;50.864;4.362;2023-02-03T05:40:48;10.60;99.90
14517;DHT22;7344;50.864;4.362;2023-02-03T05:43:33;10.50;99.90
14517;DHT22;7344;50.864;4.362;2023-02-03T05:45:59;10.50;99.90
14517;DHT22;7344;50.864;4.362;2023-02-03T05:48:26;10.50;99.90
14517;DHT22;7344;50.864;4.362;2023-02-03T05:50:51;10.50;99.90
14517;DHT22;7344;50.864;4.362;2023-02-03T05:53:17;10.50;99.90
14517;DHT22;7344;50.864;4.362;2023-02-03T05:55:42;10.50;99.90
14517;DHT22;7344;50.864;4.362;2023-02-03T05:58:08;10.50;99.90
14517;DHT22;7344;50.864;4.362;2023-02-03T06:00:35;10.50;99.90
14517;DHT22;7344;50.864;4.362;2023-02-03T06:03:01;10.50;99.90
14517;DHT22;7344;50.864;4.362;2023-02-03T06:05:28;10.60;99.90
14517;DHT22;7344;50.864;4.362;2023-02-03T06:07:54;10.60;99.90
14517;DHT22;7344;50.864;4.362;2023-02-03T06:10:20;10.70;99.90
14517;DHT22;7344;50.864;4.362;2023-02-03T06:12:46;10.70;99.90
14517;DHT22;7344;50.864;4.362;2023-02-03T06:15:12;10.60;99.90
14517;DHT22;7344;50.864;4.362;2023-02-03T06:17:38;10.70;99.90
14517;DHT22;7344;50.864;4.362;2023-02-03T06:20:05;10.60;99.90
14517;DHT22;7344;50.864;4.362;2023-02-03T06:22:31;10.60;99.90
14517;DHT22;7344;50.864;4.362;2023-02-03T06:24:57;10.60;99.90
14517;DHT22;7344;50.864;4.362;2023-02-03T06:27:23;10.60;99.90
14517;DHT22;7344;50.864;4.362;2023-02-03T06:29:49;10.60;99.90
14517;DHT22;7344;50.864;4.362;2023-02-03T06:32:15;10.50;99.90
14517;DHT22;7344;50.864;4.362;2023-02-03T06:34:40;10.50;99.90
14517;DHT22;7344;50.864;4.362;2023-02-03T06:37:06;10.60;99.90
14517;DHT22;7344;50.864;4.362;2023-02-03T06:39:31;10.60;99.90
14517;DHT22;7344;50.864;4.362;2023-02-03T06:41:57;10.70;99.90
14517;DHT22;7344;50.864;4.362;2023-02-03T06:44:23;10.70;99.90
14517;DHT22;7344;50.864;4.362;2023-02-03T06:46:54;10.70;99.90
14517;DHT22;7344;50.864;4.362;2023-02-03T06:49:20;10.70;99.90
14517;DHT22;7344;50.864;4.362;2023-02-03T06:51:46;10.70;99.90
14517;DHT22;7344;50.864;4.362;2023-02-03T06:54:13;10.60;99.90
14517;DHT22;7344;50.864;4.362;2023-02-03T06:56:38;10.70;99.90
14517;DHT22;7344;50.864;4.362;2023-02-03T06:59:04;10.70;99.90
14517;DHT22;7344;50.864;4.362;2023-02-03T07:01:30;10.70;99.90
14517;DHT22;7344;50.864;4.362;2023-02-03T07:03:56;10.60;99.90
14517;DHT22;7344;50.864;4.362;2023-02-03T07:06:26;10.60;99.90
14517;DHT22;7344;50.864;4.362;2023-02-03T07:08:57;10.60;99.90
14517;DHT22;7344;50.864;4.362;2023-02-03T07:11:23;10.60;99.90
14517;DHT22;7344;50.864;4.362;2023-02-03T07:13:49;10.60;99.90
14517;DHT22;7344;50.864;4.362;2023-02-03T07:16:14;10.60;99.90
14517;DHT22;7344;50.864;4.362;2023-02-03T07:18:40;10.70;99.90
14517;DHT22;7344;50.864;4.362;2023-02-03T07:21:06;10.80;99.90
14517;DHT22;7344;50.864;4.362;2023-02-03T07:23:32;10.80;99.90
14517;DHT22;7344;50.864;4.362;2023-02-03T07:25:58;10.70;99.90
14517;DHT22;7344;50.864;4.362;2023-02-03T07:28:24;10.80;99.90
14517;DHT22;7344;50.864;4.362;2023-02-03T07:30:50;10.80;99.90
14517;DHT22;7344;50.864;4.362;2023-02-03T07:33:16;10.80;99.90
14517;DHT22;7344;50.864;4.362;2023-02-03T07:35:41;10.70;99.90
14517;DHT22;7344;50.864;4.362;2023-02-03T07:38:07;10.60;99.90
14517;DHT22;7344;50.864;4.362;2023-02-03T07:40:32;10.60;99.90
14517;DHT22;7344;50.864;4.362;2023-02-03T07:42:58;10.60;99.90
14517;DHT22;7344;50.864;4.362;2023-02-03T07:45:24;10.70;99.90
14517;DHT22;7344;50.864;4.362;2023-02-03T07:47:50;10.70;99.90
14517;DHT22;7344;50.864;4.362;2023-02-03T07:50:16;10.80;99.90
14517;DHT22;7344;50.864;4.362;2023-02-03T07:52:42;10.90;99.90
14517;DHT22;7344;50.864;4.362;2023-02-03T07:55:08;10.70;99.90
14517;DHT22;7344;50.864;4.362;2023-02-03T07:57:33;10.70;99.90
14517;DHT22;7344;50.864;4.362;2023-02-03T07:59:59;10.70;99.90
14517;DHT22;7344;50.864;4.362;2023-02-03T08:02:25;10.80;99.90
14517;DHT22;7344;50.864;4.362;2023-02-03T08:04:50;10.80;99.90
14517;DHT22;7344;50.864;4.362;2023-02-03T08:07:16;10.90;99.90
14517;DHT22;7344;50.864;4.362;2023-02-03T08:09:42;10.80;99.90
14517;DHT22;7344;50.864;4.362;2023-02-03T08:12:07;10.90;99.90
14517;DHT22;7344;50.864;4.362;2023-02-03T08:14:33;10.90;99.90
14517;DHT22;7344;50.864;4.362;2023-02-03T08:16:59;10.80;99.90
14517;DHT22;7344;50.864;4.362;2023-02-03T08:19:24;10.90;99.90
14517;DHT22;7344;50.864;4.362;2023-02-03T08:21:50;10.90;99.90
14517;DHT22;7344;50.864;4.362;2023-02-03T08:24:15;10.80;99.90
14517;DHT22;7344;50.864;4.362;2023-02-03T08:26:41;10.80;99.90
14517;DHT22;7344;50.864;4.362;2023-02-03T08:29:07;10.90;99.90
14517;DHT22;7344;50.864;4.362;2023-02-03T08:31:32;11.00;99.90
14517;DHT22;7344;50.864;4.362;2023-02-03T08:33:58;11.00;99.90
14517;DHT22;7344;50.864;4.362;2023-02-03T08:36:24;10.90;99.90
14517;DHT22;7344;50.864;4.362;2023-02-03T08:38:49;10.90;99.90
14517;DHT22;7344;50.864;4.362;2023-02-03T08:41:16;10.90;99.90
14517;DHT22;7344;50.864;4.362;2023-02-03T08:43:43;11.00;99.90
14517;DHT22;7344;50.864;4.362;2023-02-03T08:46:10;11.10;99.90
14517;DHT22;7344;50.864;4.362;2023-02-03T08:48:36;11.20;99.90
14517;DHT22;7344;50.864;4.362;2023-02-03T08:51:09;11.20;99.90
14517;DHT22;7344;50.864;4.362;2023-02-03T08:53:35;11.10;99.90
14517;DHT22;7344;50.864;4.362;2023-02-03T08:56:05;11.20;99.90
14517;DHT22;7344;50.864;4.362;2023-02-03T08:58:30;11.20;99.90
14517;DHT22;7344;50.864;4.362;2023-02-03T09:01:05;11.00;99.90
14517;DHT22;7344;50.864;4.362;2023-02-03T09:03:30;11.10;99.90
14517;DHT22;7344;50.864;4.362;2023-02-03T09:05:57;11.00;99.90
14517;DHT22;7344;50.864;4.362;2023-02-03T09:08:24;11.10;99.90
14517;DHT22;7344;50.864;4.362;2023-02-03T09:10:50;11.00;99.90
14517;DHT22;7344;50.864;4.362;2023-02-03T09:13:15;11.00;99.90
14517;DHT22;7344;50.864;4.362;2023-02-03T09:15:41;11.00;99.90
14517;DHT22;7344;50.864;4.362;2023-02-03T09:18:06;11.00;99.90
14517;DHT22;7344;50.864;4.362;2023-02-03T09:20:32;11.00;99.90
14517;DHT22;7344;50.864;4.362;2023-02-03T09:22:58;10.90;99.90
14517;DHT22;7344;50.864;4.362;2023-02-03T09:25:24;11.00;99.90
14517;DHT22;7344;50.864;4.362;2023-02-03T09:27:50;11.00;99.90
14517;DHT22;7344;50.864;4.362;2023-02-03T09:30:16;11.10;99.90
14517;DHT22;7344;50.864;4.362;2023-02-03T09:32:42;11.10;99.90
14517;DHT22;7344;50.864;4.362;2023-02-03T09:35:07;11.20;99.90
14517;DHT22;7344;50.864;4.362;2023-02-03T09:37:33;11.20;99.90
14517;DHT22;7344;50.864;4.362;2023-02-03T09:39:58;11.20;99.90
14517;DHT22;7344;50.864;4.362;2023-02-03T09:47:41;11.20;99.90
14517;DHT22;7344;50.864;4.362;2023-02-03T09:50:14;11.20;99.90
14517;DHT22;7344;50.864;4.362;2023-02-03T09:52:43;11.20;99.90
14517;DHT22;7344;50.864;4.362;2023-02-03T09:55:16;11.20;99.90
14517;DHT22;7344;50.864;4.362;2023-02-03T09:57:49;11.20;99.90
14517;DHT22;7344;50.864;4.362;2023-02-03T10:00:22;11.20;99.90
14517;DHT22;7344;50.864;4.362;2023-02-03T10:14:34;11.60;99.90
14517;DHT22;7344;50.864;4.362;2023-02-03T10:19:42;11.40;99.90
14517;DHT22;7344;50.864;4.362;2023-02-03T10:22:14;11.50;99.90
14517;DHT22;7344;50.864;4.362;2023-02-03T10:24:59;11.70;99.90
14517;DHT22;7344;50.864;4.362;2023-02-03T10:27:26;11.80;99.90
14517;DHT22;7344;50.864;4.362;2023-02-03T10:29:58;11.80;99.90
14517;DHT22;7344;50.864;4.362;2023-02-03T10:32:26;11.90;99.90
14517;DHT22;7344;50.864;4.362;2023-02-03T10:34:52;11.80;99.90
14517;DHT22;7344;50.864;4.362;2023-02-03T10:37:32;11.60;99.90
14517;DHT22;7344;50.864;4.362;2023-02-03T10:40:00;11.60;99.90
14517;DHT22;7344;50.864;4.362;2023-02-03T10:42:28;11.60;99.90
14517;DHT22;7344;50.864;4.362;2023-02-03T10:45:14;11.60;99.90
14517;DHT22;7344;50.864;4.362;2023-02-03T10:47:58;11.60;99.90
14517;DHT22;7344;50.864;4.362;2023-02-03T10:50:25;11.70;99.90
14517;DHT22;7344;50.864;4.362;2023-02-03T10:53:18;11.70;99.90
14517;DHT22;7344;50.864;4.362;2023-02-03T10:56:08;11.60;99.90
14517;DHT22;7344;50.864;4.362;2023-02-03T10:58:37;11.80;99.90
14517;DHT22;7344;50.864;4.362;2023-02-03T11:01:15;11.80;99.90
14517;DHT22;7344;50.864;4.362;2023-02-03T11:03:42;11.80;99.90
14517;DHT22;7344;50.864;4.362;2023-02-03T11:06:11;11.70;99.90
14517;DHT22;7344;50.864;4.362;2023-02-03T11:08:39;11.70;99.90
14517;DHT22;7344;50.864;4.362;2023-02-03T11:11:08;11.70;99.90
14517;DHT22;7344;50.864;4.362;2023-02-03T11:13:34;11.70;99.90
14517;DHT22;7344;50.864;4.362;2023-02-03T11:20:57;11.70;99.90
14517;DHT22;7344;50.864;4.362;2023-02-03T11:23:24;11.70;99.90
14517;DHT22;7344;50.864;4.362;2023-02-03T11:25:50;11.80;99.90
14517;DHT22;7344;50.864;4.362;2023-02-03T11:28:16;11.60;99.90
14517;DHT22;7344;50.864;4.362;2023-02-03T11:30:42;11.60;99.90
14517;DHT22;7344;50.864;4.362;2023-02-03T11:33:18;11.70;99.90
14517;DHT22;7344;50.864;4.362;2023-02-03T11:35:56;11.70;99.90
14517;DHT22;7344;50.864;4.362;2023-02-03T11:38:31;11.70;99.90
14517;DHT22;7344;50.864;4.362;2023-02-03T11:41:00;11.70;99.90
14517;DHT22;7344;50.864;4.362;2023-02-03T11:43:27;11.70;99.90
14517;DHT22;7344;50.864;4.362;2023-02-03T11:46:01;11.60;99.90
14517;DHT22;7344;50.864;4.362;2023-02-03T11:48:31;11.70;99.90
14517;DHT22;7344;50.864;4.362;2023-02-03T11:51:25;11.80;99.90
14517;DHT22;7344;50.864;4.362;2023-02-03T11:54:36;11.80;99.90
14517;DHT22;7344;50.864;4.362;2023-02-03T11:57:14;11.80;99.90
14517;DHT22;7344;50.864;4.362;2023-02-03T12:08:08;11.80;99.90
14517;DHT22;7344;50.864;4.362;2023-02-03T12:21:34;12.00;99.90
14517;DHT22;7344;50.864;4.362;2023-02-03T12:29:48;12.00;99.90
14517;DHT22;7344;50.864;4.362;2023-02-03T12:35:10;11.90;99.90
14517;DHT22;7344;50.864;4.362;2023-02-03T12:40:21;12.00;99.90
14517;DHT22;7344;50.864;4.362;2023-02-03T12:45:35;12.20;99.90
14517;DHT22;7344;50.864;4.362;2023-02-03T12:48:09;12.20;99.90
14517;DHT22;7344;50.864;4.362;2023-02-03T12:50:43;12.30;99.90
14517;DHT22;7344;50.864;4.362;2023-02-03T12:53:33;12.20;99.90
14517;DHT22;7344;50.864;4.362;2023-02-03T12:56:12;12.20;99.90
14517;DHT22;7344;50.864;4.362;2023-02-03T13:01:23;12.30;99.90
14517;DHT22;7344;50.864;4.362;2023-02-03T13:04:05;12.40;99.90
14517;DHT22;7344;50.864;4.362;2023-02-03T13:09:25;12.40;99.90
14517;DHT22;7344;50.864;4.362;2023-02-03T13:12:16;12.40;99.90
14517;DHT22;7344;50.864;4.362;2023-02-03T13:14:50;12.40;99.90
14517;DHT22;7344;50.864;4.362;2023-02-03T13:17:24;12.40;99.90
14517;DHT22;7344;50.864;4.362;2023-02-03T13:20:01;12.40;99.90
14517;DHT22;7344;50.864;4.362;2023-02-03T13:22:29;12.40;99.90
14517;DHT22;7344;50.864;4.362;2023-02-03T13:34:19;12.50;99.90
14517;DHT22;7344;50.864;4.362;2023-02-03T13:42:31;12.80;99.90
14517;DHT22;7344;50.864;4.362;2023-02-03T13:48:27;12.70;99.90
14517;DHT22;7344;50.864;4.362;2023-02-03T13:50:47;12.70;99.90
14517;DHT22;7344;50.864;4.362;2023-02-03T13:53:17;12.60;99.90
14517;DHT22;7344;50.864;4.362;2023-02-03T13:55:51;12.50;99.90
14517;DHT22;7344;50.864;4.362;2023-02-03T13:58:23;12.50;99.90
14517;DHT22;7344;50.864;4.362;2023-02-03T14:03:17;12.40;99.90
14517;DHT22;7344;50.864;4.362;2023-02-03T14:05:47;12.30;99.90
14517;DHT22;7344;50.864;4.362;2023-02-03T14:19:05;12.40;99.90
14517;DHT22;7344;50.864;4.362;2023-02-03T14:24:09;12.50;99.90
14517;DHT22;7344;50.864;4.362;2023-02-03T14:26:44;12.70;99.90
14517;DHT22;7344;50.864;4.362;2023-02-03T14:29:27;12.80;99.90
14517;DHT22;7344;50.864;4.362;2023-02-03T14:32:02;12.80;99.90
14517;DHT22;7344;50.864;4.362;2023-02-03T14:45:31;13.00;99.90
14517;DHT22;7344;50.864;4.362;2023-02-03T14:59:36;12.70;99.90
14517;DHT22;7344;50.864;4.362;2023-02-03T15:02:06;12.70;99.90
14517;DHT22;7344;50.864;4.362;2023-02-03T15:04:32;12.70;99.90
14517;DHT22;7344;50.864;4.362;2023-02-03T15:06:58;12.70;99.90
14517;DHT22;7344;50.864;4.362;2023-02-03T15:09:44;12.60;99.90
14517;DHT22;7344;50.864;4.362;2023-02-03T15:12:24;12.60;99.90
14517;DHT22;7344;50.864;4.362;2023-02-03T15:14:51;12.60;99.90
14517;DHT22;7344;50.864;4.362;2023-02-03T15:17:25;12.50;99.90
14517;DHT22;7344;50.864;4.362;2023-02-03T15:19:51;12.60;99.90
14517;DHT22;7344;50.864;4.362;2023-02-03T15:24:54;12.60;99.90
14517;DHT22;7344;50.864;4.362;2023-02-03T15:27:22;12.50;99.90
14517;DHT22;7344;50.864;4.362;2023-02-03T15:29:48;12.40;99.90
14517;DHT22;7344;50.864;4.362;2023-02-03T15:34:50;12.40;99.90
14517;DHT22;7344;50.864;4.362;2023-02-03T15:45:19;12.40;99.90
14517;DHT22;7344;50.864;4.362;2023-02-03T15:47:58;12.40;99.90
14517;DHT22;7344;50.864;4.362;2023-02-03T15:50:48;12.40;99.90
14517;DHT22;7344;50.864;4.362;2023-02-03T15:55:48;12.30;99.90
14517;DHT22;7344;50.864;4.362;2023-02-03T15:58:23;12.40;99.90
14517;DHT22;7344;50.864;4.362;2023-02-03T16:00:54;12.40;99.90
14517;DHT22;7344;50.864;4.362;2023-02-03T16:03:27;12.40;99.90
14517;DHT22;7344;50.864;4.362;2023-02-03T16:06:08;12.40;99.90
14517;DHT22;7344;50.864;4.362;2023-02-03T16:08:44;12.40;99.90
14517;DHT22;7344;50.864;4.362;2023-02-03T16:11:24;12.50;99.90
14517;DHT22;7344;50.864;4.362;2023-02-03T16:13:51;12.60;99.90
14517;DHT22;7344;50.864;4.362;2023-02-03T16:18:56;12.50;99.90
14517;DHT22;7344;50.864;4.362;2023-02-03T16:21:29;12.50;99.90
14517;DHT22;7344;50.864;4.362;2023-02-03T16:23:56;12.60;99.90
14517;DHT22;7344;50.864;4.362;2023-02-03T16:26:24;12.50;99.90
14517;DHT22;7344;50.864;4.362;2023-02-03T16:31:47;12.50;99.90
14517;DHT22;7344;50.864;4.362;2023-02-03T16:34:31;12.40;99.90
14517;DHT22;7344;50.864;4.362;2023-02-03T16:37:23;12.40;99.90
14517;DHT22;7344;50.864;4.362;2023-02-03T16:40:09;12.40;99.90
14517;DHT22;7344;50.864;4.362;2023-02-03T16:42:53;12.40;99.90
14517;DHT22;7344;50.864;4.362;2023-02-03T16:45:37;12.40;99.90
14517;DHT22;7344;50.864;4.362;2023-02-03T16:48:21;12.40;99.90
14517;DHT22;7344;50.864;4.362;2023-02-03T16:51:14;12.40;99.90
14517;DHT22;7344;50.864;4.362;2023-02-03T16:53:43;12.50;99.90
14517;DHT22;7344;50.864;4.362;2023-02-03T16:56:10;12.50;99.90
14517;DHT22;7344;50.864;4.362;2023-02-03T16:58:36;12.60;99.90
14517;DHT22;7344;50.864;4.362;2023-02-03T17:01:03;12.50;99.90
14517;DHT22;7344;50.864;4.362;2023-02-03T17:03:29;12.50;99.90
14517;DHT22;7344;50.864;4.362;2023-02-03T17:06:02;12.60;99.90
14517;DHT22;7344;50.864;4.362;2023-02-03T17:08:28;12.60;99.90
14517;DHT22;7344;50.864;4.362;2023-02-03T17:10:54;12.50;99.90
14517;DHT22;7344;50.864;4.362;2023-02-03T17:13:21;12.40;99.90
14517;DHT22;7344;50.864;4.362;2023-02-03T17:15:49;12.40;99.90
14517;DHT22;7344;50.864;4.362;2023-02-03T17:18:17;12.40;99.90
14517;DHT22;7344;50.864;4.362;2023-02-03T17:20:43;12.40;99.90
14517;DHT22;7344;50.864;4.362;2023-02-03T17:23:10;12.40;99.90
14517;DHT22;7344;50.864;4.362;2023-02-03T17:25:38;12.40;99.90
14517;DHT22;7344;50.864;4.362;2023-02-03T17:28:06;12.30;99.90
14517;DHT22;7344;50.864;4.362;2023-02-03T17:30:32;12.20;99.90
14517;DHT22;7344;50.864;4.362;2023-02-03T17:33:03;12.10;99.90
14517;DHT22;7344;50.864;4.362;2023-02-03T17:35:43;12.00;99.90
14517;DHT22;7344;50.864;4.362;2023-02-03T17:38:10;12.00;99.90
14517;DHT22;7344;50.864;4.362;2023-02-03T17:40:42;12.00;99.90
14517;DHT22;7344;50.864;4.362;2023-02-03T17:43:07;11.90;99.90
14517;DHT22;7344;50.864;4.362;2023-02-03T17:45:38;11.80;99.90
14517;DHT22;7344;50.864;4.362;2023-02-03T17:48:04;11.70;99.90
14517;DHT22;7344;50.864;4.362;2023-02-03T17:50:31;11.70;99.90
14517;DHT22;7344;50.864;4.362;2023-02-03T17:52:57;11.60;99.90
14517;DHT22;7344;50.864;4.362;2023-02-03T17:55:23;11.60;99.90
14517;DHT22;7344;50.864;4.362;2023-02-03T17:57:49;11.60;99.90
14517;DHT22;7344;50.864;4.362;2023-02-03T18:00:15;11.60;99.90
14517;DHT22;7344;50.864;4.362;2023-02-03T18:02:40;11.60;99.90
14517;DHT22;7344;50.864;4.362;2023-02-03T18:05:07;11.60;99.90
14517;DHT22;7344;50.864;4.362;2023-02-03T18:07:33;11.60;99.90
14517;DHT22;7344;50.864;4.362;2023-02-03T18:09:59;11.60;99.90
14517;DHT22;7344;50.864;4.362;2023-02-03T18:12:24;11.60;99.90
14517;DHT22;7344;50.864;4.362;2023-02-03T18:14:50;11.70;99.90
14517;DHT22;7344;50.864;4.362;2023-02-03T18:17:15;11.70;99.90
14517;DHT22;7344;50.864;4.362;2023-02-03T18:19:41;11.70;99.90
14517;DHT22;7344;50.864;4.362;2023-02-03T18:22:06;11.80;99.90
14517;DHT22;7344;50.864;4.362;2023-02-03T18:24:32;11.70;99.90
14517;DHT22;7344;50.864;4.362;2023-02-03T18:26:58;11.70;99.90
14517;DHT22;7344;50.864;4.362;2023-02-03T18:29:25;11.70;99.90
14517;DHT22;7344;50.864;4.362;2023-02-03T18:31:51;11.60;99.90
14517;DHT22;7344;50.864;4.362;2023-02-03T18:34:17;11.70;99.90
14517;DHT22;7344;50.864;4.362;2023-02-03T18:36:43;11.80;99.90
14517;DHT22;7344;50.864;4.362;2023-02-03T18:39:09;11.90;99.90
14517;DHT22;7344;50.864;4.362;2023-02-03T18:41:35;11.80;99.90